Time;durP1;ratioP1;P1;durP2;ratioP2;P2;SDS_P1;SDS_P2;PMS_P1;PMS_P2;Temp;Humidity;BMP_temperature;BMP_pressure;BME280_temperature;BME280_humidity;BME280_pressure;Samples;Min_cycle;Max_cycle;Signal;HPM_P1;HPM_P2
2023/03/01 00:01:49;;;;;;;5.23;3.83;;;;;;;-141.97;100.00;47780.47;5096495;28;20156;-89
2023/03/01 00:04:15;;;;;;;5.73;3.73;;;;;;;-141.97;100.00;47722.81;5079165;28;20195;-89
2023/03/01 00:06:45;;;;;;;5.23;3.30;;;;;;;-141.97;100.00;47703.59;5096730;28;20164;-89
2023/03/01 00:09:12;;;;;;;4.90;3.80;;;;;;;-141.97;100.00;47732.44;5094687;28;20266;-89
2023/03/01 00:11:37;;;;;;;8.47;5.37;;;;;;;-141.97;100.00;47786.25;5095417;28;20402;-88
2023/03/01 00:14:09;;;;;;;7.97;5.37;;;;;;;-141.97;100.00;47793.94;5095755;28;20394;-88
2023/03/01 00:16:40;;;;;;;6.17;4.00;;;;;;;-141.97;100.00;47792.03;5096607;28;20212;-88
2023/03/01 00:19:08;;;;;;;6.67;4.67;;;;;;;-141.97;100.00;47761.25;5094992;28;20206;-89
2023/03/01 00:21:35;;;;;;;7.07;4.80;;;;;;;-141.97;100.00;47770.88;5094792;28;20565;-88
2023/03/01 00:24:01;;;;;;;7.50;4.70;;;;;;;-141.97;100.00;47788.19;5096322;28;20321;-88
2023/03/01 00:26:27;;;;;;;8.50;5.00;;;;;;;-141.97;100.00;47786.25;5096247;28;20409;-89
2023/03/01 00:28:55;;;;;;;7.37;4.43;;;;;;;-141.97;100.00;47818.94;5094646;28;20168;-88
2023/03/01 00:31:26;;;;;;;9.67;6.50;;;;;;;-141.97;100.00;47799.72;5094575;28;20164;-88
2023/03/01 00:33:56;;;;;;;10.03;5.70;;;;;;;-141.97;100.00;47742.03;5094117;28;20167;-88
2023/03/01 00:36:24;;;;;;;7.60;5.10;;;;;;;-141.97;100.00;47870.81;5083963;28;20723;-88
2023/03/01 00:38:49;;;;;;;7.60;5.03;;;;;;;-141.97;100.00;47705.53;5074853;28;20426;-89
2023/03/01 00:41:17;;;;;;;6.57;4.00;;;;;;;-141.97;100.00;47801.63;5075079;28;20240;-88
2023/03/01 00:43:43;;;;;;;8.03;5.37;;;;;;;-141.97;100.00;47765.09;5075364;28;20275;-88
2023/03/01 00:46:14;;;;;;;9.33;5.47;;;;;;;-141.97;100.00;47765.09;5075865;28;20199;-89
2023/03/01 00:48:40;;;;;;;7.70;4.80;;;;;;;-141.97;100.00;47765.09;5075249;28;20168;-88
2023/03/01 00:51:17;;;;;;;7.27;4.90;;;;;;;-141.97;100.00;47620.94;5058284;28;20164;-88
2023/03/01 00:53:42;;;;;;;7.67;5.00;;;;;;;-141.97;100.00;47907.34;5076124;28;20643;-88
2023/03/01 00:56:09;;;;;;;6.97;4.73;;;;;;;-141.97;100.00;47757.41;5075264;28;20489;-88
2023/03/01 00:58:35;;;;;;;9.17;5.57;;;;;;;-141.97;100.00;47803.56;5073647;28;20268;-88
2023/03/01 01:01:19;;;;;;;8.80;5.30;;;;;;;-141.97;100.00;47811.25;5073643;28;20250;-88
2023/03/01 01:03:52;;;;;;;7.83;5.13;;;;;;;-141.97;100.00;47805.47;5055694;28;20187;-89
2023/03/01 01:06:29;;;;;;;9.70;6.63;;;;;;;-141.97;100.00;47799.72;5073700;28;20322;-88
2023/03/01 01:08:55;;;;;;;10.07;5.57;;;;;;;-141.97;100.00;47822.78;5073203;28;20612;-89
2023/03/01 01:11:23;;;;;;;9.80;6.23;;;;;;;-141.97;100.00;47799.72;5072916;28;20161;-88
2023/03/01 01:13:49;;;;;;;14.93;8.37;;;;;;;-141.97;100.00;47788.19;5056101;28;20655;-88
2023/03/01 01:16:17;;;;;;;6.07;4.27;;;;;;;-141.97;100.00;47826.63;5074170;28;20299;-88
2023/03/01 01:18:43;;;;;;;6.43;4.57;;;;;;;-141.97;100.00;47886.22;5069384;28;20172;-86
2023/03/01 01:21:13;;;;;;;5.83;4.20;;;;;;;-141.97;100.00;47822.78;5076633;28;20165;-88
2023/03/01 01:23:40;;;;;;;5.67;3.90;;;;;;;-141.97;100.00;47749.72;5073149;28;20196;-87
2023/03/01 01:26:07;;;;;;;6.40;3.90;;;;;;;-141.97;100.00;47743.97;5074127;28;20165;-88
2023/03/01 01:28:33;;;;;;;5.93;4.10;;;;;;;-141.97;100.00;47645.94;5072275;28;20418;-87
2023/03/01 01:30:59;;;;;;;5.60;4.00;;;;;;;-141.97;100.00;47815.09;5073459;28;20562;-89
2023/03/01 01:33:24;;;;;;;5.63;3.87;;;;;;;-141.97;100.00;47659.38;5056864;28;20160;-87
2023/03/01 01:35:50;;;;;;;6.07;4.03;;;;;;;-141.97;100.00;47822.78;5078110;28;20414;-87
2023/03/01 01:38:15;;;;;;;5.23;3.53;;;;;;;-141.97;100.00;47815.09;5082032;28;20172;-88
2023/03/01 01:40:45;;;;;;;5.30;3.67;;;;;;;-141.97;100.00;47813.16;5073082;28;20716;-89
2023/03/01 01:43:27;;;;;;;6.73;4.03;;;;;;;-141.97;100.00;47811.25;5074056;28;20196;-86
2023/03/01 01:45:56;;;;;;;5.43;3.67;;;;;;;-141.97;100.00;47778.56;5075328;28;20264;-86
2023/03/01 01:48:40;;;;;;;5.37;3.83;;;;;;;-141.97;100.00;47807.41;5057205;28;20411;-86
2023/03/01 01:51:07;;;;;;;6.07;3.50;;;;;;;-141.97;100.00;47699.75;5057208;28;20161;-86
2023/03/01 01:53:32;;;;;;;4.77;3.33;;;;;;;-141.97;100.00;47790.09;5072655;28;20218;-88
2023/03/01 01:56:00;;;;;;;5.17;3.37;;;;;;;-141.97;100.00;47707.44;5073779;28;20879;-88
2023/03/01 01:58:29;;;;;;;5.27;3.77;;;;;;;-141.97;100.00;47645.94;5073883;28;20248;-88
2023/03/01 02:00:54;;;;;;;5.20;3.33;;;;;;;-141.97;100.00;47692.06;5073694;28;20306;-89
2023/03/01 02:03:28;;;;;;;5.57;3.67;;;;;;;-141.97;100.00;47786.25;5073615;28;20208;-89
2023/03/01 02:06:03;;;;;;;4.73;3.53;;;;;;;-141.97;100.00;47822.78;5073706;28;20164;-88
2023/03/01 02:08:31;;;;;;;6.53;3.93;;;;;;;-141.97;100.00;47713.22;5073910;28;20152;-89
2023/03/01 02:10:59;;;;;;;5.80;3.60;;;;;;;-141.97;100.00;47742.03;5056913;28;20448;-88
2023/03/01 02:13:25;;;;;;;5.77;3.80;;;;;;;-141.97;100.00;47792.03;5072725;28;20654;-89
2023/03/01 02:15:51;;;;;;;6.30;3.90;;;;;;;-141.97;100.00;47753.56;5072624;28;20450;-87
2023/03/01 02:18:18;;;;;;;6.13;4.20;;;;;;;-141.97;100.00;47888.13;5073665;28;20484;-85
2023/03/01 02:20:56;;;;;;;6.20;3.90;;;;;;;-141.97;100.00;47776.63;5073473;28;20248;-86
2023/03/01 02:23:22;;;;;;;5.97;4.23;;;;;;;-141.97;100.00;47705.53;5072793;28;20937;-88
2023/03/01 02:26:03;;;;;;;6.27;4.20;;;;;;;-141.97;100.00;47768.94;5054744;28;20426;-87
2023/03/01 02:28:40;;;;;;;8.90;4.60;;;;;;;-141.97;100.00;47786.25;5055365;28;20494;-89
2023/03/01 02:33:53;;;;;;;7.60;4.63;;;;;;;-141.97;100.00;47813.16;5071830;28;20222;-88
2023/03/01 02:36:30;;;;;;;6.83;4.37;;;;;;;-141.97;100.00;47736.28;5072045;28;20405;-88
2023/03/01 02:38:58;;;;;;;7.67;4.63;;;;;;;-141.97;100.00;47772.78;5072618;28;20415;-89
2023/03/01 02:41:26;;;;;;;6.97;4.53;;;;;;;-141.97;100.00;47803.56;5071836;28;20405;-87
2023/03/01 02:43:52;;;;;;;8.63;4.40;;;;;;;-141.97;100.00;47751.66;5070377;28;20451;-88
2023/03/01 02:46:24;;;;;;;6.83;4.20;;;;;;;-141.97;100.00;47763.19;5072471;28;20399;-88
2023/03/01 02:48:55;;;;;;;7.20;4.43;;;;;;;-141.97;100.00;47792.03;5071706;28;20184;-88
2023/03/01 02:51:32;;;;;;;7.30;4.37;;;;;;;-141.97;100.00;47868.91;5072013;28;20474;-89
2023/03/01 02:54:19;;;;;;;7.20;4.53;;;;;;;-141.97;100.00;47822.78;5053850;28;20415;-88
2023/03/01 02:56:48;;;;;;;7.30;4.63;;;;;;;-141.97;100.00;47740.13;5071226;28;20429;-88
2023/03/01 02:59:15;;;;;;;8.27;4.70;;;;;;;-141.97;100.00;47895.81;5053471;28;20418;-87
2023/03/01 03:01:41;;;;;;;8.77;4.90;;;;;;;-141.97;100.00;47642.09;5072977;28;21008;-88
2023/03/01 03:04:11;;;;;;;7.60;4.47;;;;;;;-141.97;100.00;47728.59;5072004;28;20538;-88
2023/03/01 03:06:37;;;;;;;8.33;5.00;;;;;;;-141.97;100.00;47734.34;5072055;28;20395;-88
2023/03/01 03:09:03;;;;;;;7.13;4.80;;;;;;;-141.97;100.00;47770.88;5071526;28;20490;-88
2023/03/01 03:11:30;;;;;;;7.83;4.70;;;;;;;-141.97;100.00;47870.81;5070284;28;20172;-88
2023/03/01 03:13:56;;;;;;;7.77;4.10;;;;;;;-141.97;100.00;47749.72;5071474;28;20490;-87
2023/03/01 03:16:21;;;;;;;8.40;4.83;;;;;;;-141.97;100.00;47634.41;5071229;28;20892;-88
2023/03/01 03:18:49;;;;;;;8.20;4.80;;;;;;;-141.97;100.00;47742.03;5053475;28;20453;-88
2023/03/01 03:21:16;;;;;;;10.37;6.37;;;;;;;-141.97;100.00;47676.69;5053430;28;20188;-88
2023/03/01 03:23:41;;;;;;;8.87;5.00;;;;;;;-141.97;100.00;47784.34;5070987;28;20447;-88
2023/03/01 03:26:07;;;;;;;8.17;4.60;;;;;;;-141.97;100.00;47880.44;5072059;28;20392;-88
2023/03/01 03:28:34;;;;;;;8.67;4.90;;;;;;;-141.97;100.00;47832.38;5070708;28;20175;-88
2023/03/01 03:31:03;;;;;;;9.17;5.47;;;;;;;-141.97;100.00;47661.31;5072392;28;20179;-88
2023/03/01 03:33:32;;;;;;;9.57;5.50;;;;;;;-141.97;100.00;47780.47;5054728;28;20415;-88
2023/03/01 03:35:58;;;;;;;9.40;5.77;;;;;;;-141.97;100.00;47872.75;5072550;28;20405;-88
2023/03/01 03:38:24;;;;;;;9.20;5.40;;;;;;;-141.97;100.00;47799.72;5071743;28;20809;-88
2023/03/01 03:41:02;;;;;;;9.43;5.67;;;;;;;-141.97;100.00;47649.78;5054461;28;20883;-88
2023/03/01 03:43:27;;;;;;;10.80;6.10;;;;;;;-141.97;100.00;47822.78;5053986;28;20195;-88
2023/03/01 03:46:11;;;;;;;9.87;5.97;;;;;;;-141.97;100.00;47934.25;5072251;28;20411;-88
2023/03/01 03:48:42;;;;;;;11.47;6.40;;;;;;;-141.97;100.00;47884.28;5072027;28;20168;-88
2023/03/01 03:51:14;;;;;;;12.20;6.53;;;;;;;-141.97;100.00;47801.63;5071509;28;20560;-88
2023/03/01 03:53:39;;;;;;;10.43;6.20;;;;;;;-141.97;100.00;47826.63;5054260;28;20427;-88
2023/03/01 03:56:06;;;;;;;11.40;6.30;;;;;;;-141.97;100.00;47805.47;5072126;28;20925;-89
2023/03/01 03:58:31;;;;;;;10.43;6.30;;;;;;;-141.97;100.00;47730.50;5072081;28;20165;-88
2023/03/01 04:00:57;;;;;;;9.90;5.63;;;;;;;-141.97;100.00;47767.03;5072422;28;20809;-87
2023/03/01 04:03:24;;;;;;;11.03;5.73;;;;;;;-141.97;100.00;47745.88;5072251;28;20180;-87
2023/03/01 04:05:51;;;;;;;9.37;5.60;;;;;;;-141.97;100.00;47815.09;5071828;28;20180;-89
2023/03/01 04:08:19;;;;;;;8.83;5.40;;;;;;;-141.97;100.00;47799.72;5071940;28;20399;-88
2023/03/01 04:10:50;;;;;;;7.83;5.00;;;;;;;-141.97;100.00;47818.94;5072153;28;20399;-88
2023/03/01 04:13:22;;;;;;;8.17;5.10;;;;;;;-141.97;100.00;47767.03;5053713;28;20411;-88
2023/03/01 04:15:52;;;;;;;9.77;5.63;;;;;;;-141.97;100.00;47747.81;5054555;28;20781;-87
2023/03/01 04:18:20;;;;;;;9.17;5.40;;;;;;;-141.97;100.00;47872.75;5071501;28;20439;-89
2023/03/01 04:20:46;;;;;;;10.63;5.40;;;;;;;-141.97;100.00;47815.09;5054467;28;20468;-88
2023/03/01 04:23:19;;;;;;;8.90;5.53;;;;;;;-141.97;100.00;47747.81;5073354;28;20454;-88
2023/03/01 04:25:55;;;;;;;11.70;6.00;;;;;;;-141.97;100.00;47818.94;5077579;28;20252;-89
2023/03/01 04:28:28;;;;;;;10.43;5.93;;;;;;;-141.97;100.00;47772.78;5077851;28;20409;-87
2023/03/01 04:30:55;;;;;;;9.77;5.73;;;;;;;-141.97;100.00;47815.09;5071614;28;20972;-88
2023/03/01 04:33:22;;;;;;;14.73;7.60;;;;;;;-141.97;100.00;47815.09;5054549;28;20459;-88
2023/03/01 04:35:50;;;;;;;10.70;6.23;;;;;;;-141.97;100.00;47799.72;5057128;28;20417;-87
2023/03/01 04:38:21;;;;;;;10.87;5.97;;;;;;;-141.97;100.00;47809.31;5058830;28;20224;-87
2023/03/01 04:40:46;;;;;;;11.70;6.67;;;;;;;-141.97;100.00;47788.19;5058154;28;20449;-86
2023/03/01 04:43:15;;;;;;;13.17;6.70;;;;;;;-141.97;100.00;47828.53;5059204;28;20462;-87
2023/03/01 04:45:40;;;;;;;12.47;7.47;;;;;;;-141.97;100.00;47797.78;5056826;28;20168;-89
2023/03/01 04:48:06;;;;;;;12.70;6.70;;;;;;;-141.97;100.00;47722.81;5074808;28;20513;-88
2023/03/01 04:50:32;;;;;;;12.57;6.93;;;;;;;-141.97;100.00;47849.69;5078096;28;20161;-88
2023/03/01 04:52:58;;;;;;;14.43;8.43;;;;;;;-141.97;100.00;47878.53;5074426;28;20553;-88
2023/03/01 04:55:25;;;;;;;22.73;13.60;;;;;;;-141.97;100.00;47874.69;5056549;28;20219;-88
2023/03/01 04:57:51;;;;;;;13.70;8.37;;;;;;;-141.97;100.00;47813.16;5056599;28;20411;-87
2023/03/01 05:00:19;;;;;;;15.27;9.13;;;;;;;-141.97;100.00;47784.34;5075698;28;20482;-88
2023/03/01 05:02:54;;;;;;;18.80;11.53;;;;;;;-141.97;100.00;47817.00;5075511;28;20164;-88
2023/03/01 05:05:34;;;;;;;13.50;7.23;;;;;;;-141.97;100.00;47780.47;5073784;28;20418;-88
2023/03/01 05:08:05;;;;;;;12.07;7.53;;;;;;;-141.97;100.00;47930.41;5075179;28;20903;-86
2023/03/01 05:10:34;;;;;;;16.50;9.80;;;;;;;-141.97;100.00;47799.72;5074888;28;20425;-85
2023/03/01 05:13:00;;;;;;;15.07;8.37;;;;;;;-141.97;100.00;47776.63;5073162;28;20422;-88
2023/03/01 05:15:28;;;;;;;14.13;8.43;;;;;;;-141.97;100.00;47768.94;5074241;28;20402;-88
2023/03/01 05:17:55;;;;;;;16.50;8.63;;;;;;;-141.97;100.00;47755.50;5074448;28;20173;-88
2023/03/01 05:20:24;;;;;;;17.20;9.70;;;;;;;-141.97;100.00;47755.50;5056463;28;20548;-88
2023/03/01 05:22:51;;;;;;;17.17;9.73;;;;;;;-141.97;100.00;47747.81;5056674;28;20933;-88
2023/03/01 05:25:17;;;;;;;19.67;9.33;;;;;;;-141.97;100.00;47718.97;5073150;28;20430;-88
2023/03/01 05:27:42;;;;;;;17.90;8.93;;;;;;;-141.97;100.00;47836.22;5073235;28;20839;-88
2023/03/01 05:30:14;;;;;;;17.60;9.20;;;;;;;-141.97;100.00;47901.59;5037443;28;20606;-88
2023/03/01 05:32:45;;;;;;;16.40;9.80;;;;;;;-141.97;100.00;47817.00;5066137;28;20693;-89
2023/03/01 05:35:16;;;;;;;17.40;9.57;;;;;;;-141.97;100.00;47720.91;5073706;28;20409;-87
2023/03/01 05:37:43;;;;;;;14.47;8.90;;;;;;;-141.97;100.00;47788.19;5053325;28;20425;-87
2023/03/01 05:40:18;;;;;;;18.97;9.50;;;;;;;-141.97;100.00;47809.31;5073557;28;20472;-87
2023/03/01 05:42:54;;;;;;;18.53;8.80;;;;;;;-141.97;100.00;47815.09;5072944;28;20432;-87
2023/03/01 05:45:23;;;;;;;16.30;9.00;;;;;;;-141.97;100.00;47790.09;5072928;28;20450;-87
2023/03/01 05:47:49;;;;;;;27.93;13.53;;;;;;;-141.97;100.00;47809.31;5072631;28;20418;-88
2023/03/01 05:50:20;;;;;;;32.53;16.90;;;;;;;-141.97;100.00;47822.78;5055049;28;20419;-88
2023/03/01 05:52:51;;;;;;;21.70;11.90;;;;;;;-141.97;100.00;47905.44;5052913;28;20469;-87
2023/03/01 05:55:20;;;;;;;20.13;11.37;;;;;;;-141.97;100.00;47843.91;5052858;28;20892;-87
2023/03/01 05:57:45;;;;;;;16.80;9.70;;;;;;;-141.97;100.00;47795.88;5053335;28;20400;-87
2023/03/01 06:00:13;;;;;;;19.73;11.33;;;;;;;-141.97;100.00;47805.47;5052705;28;20905;-88
2023/03/01 06:02:39;;;;;;;17.17;10.23;;;;;;;-141.97;100.00;47720.91;5061138;28;20191;-87
2023/03/01 06:05:07;;;;;;;18.13;9.97;;;;;;;-141.97;100.00;47799.72;5072066;28;20450;-87
2023/03/01 06:07:33;;;;;;;13.53;8.60;;;;;;;-141.97;100.00;47799.72;5072847;28;20511;-87
2023/03/01 06:09:58;;;;;;;15.20;8.80;;;;;;;-141.97;100.00;47761.25;5073764;28;20192;-88
2023/03/01 06:12:24;;;;;;;17.37;11.07;;;;;;;-141.97;100.00;47713.22;5056324;28;20202;-88
2023/03/01 06:14:49;;;;;;;14.83;9.30;;;;;;;-141.97;100.00;47820.84;5055176;28;20560;-88
2023/03/01 06:17:15;;;;;;;18.63;10.97;;;;;;;-141.97;100.00;47853.53;5054092;28;20224;-87
2023/03/01 06:19:40;;;;;;;19.77;12.13;;;;;;;-141.97;100.00;47832.38;5073061;28;20215;-88
2023/03/01 06:22:06;;;;;;;18.50;11.13;;;;;;;-141.97;100.00;47811.25;5056142;28;20612;-87
2023/03/01 06:24:32;;;;;;;16.97;9.30;;;;;;;-141.97;100.00;47699.75;5087419;28;20287;-88
2023/03/01 06:26:58;;;;;;;14.87;9.30;;;;;;;-141.97;100.00;47761.25;5071806;28;20260;-87
2023/03/01 06:29:24;;;;;;;19.20;11.80;;;;;;;-141.97;100.00;47699.75;5054254;28;20658;-88
2023/03/01 06:31:49;;;;;;;32.03;17.40;;;;;;;-141.97;100.00;47793.94;5045385;28;20724;-86
2023/03/01 06:34:15;;;;;;;21.10;11.23;;;;;;;-141.97;100.00;47803.56;5073825;28;20207;-87
2023/03/01 06:36:40;;;;;;;19.00;11.50;;;;;;;-141.97;100.00;47726.66;5055667;28;20259;-87
2023/03/01 06:39:06;;;;;;;16.20;8.40;;;;;;;-141.97;100.00;47845.84;5055909;28;20188;-87
2023/03/01 06:41:33;;;;;;;16.23;9.13;;;;;;;-141.97;100.00;47811.25;5073061;28;20165;-87
2023/03/01 06:43:59;;;;;;;14.87;8.47;;;;;;;-141.97;100.00;47907.34;5054223;28;20220;-88
2023/03/01 06:46:24;;;;;;;12.50;7.50;;;;;;;-141.97;100.00;47788.19;5071855;28;20177;-88
2023/03/01 06:48:50;;;;;;;14.17;7.63;;;;;;;-141.97;100.00;47765.09;5071083;28;20171;-88
2023/03/01 06:51:15;;;;;;;12.63;7.80;;;;;;;-141.97;100.00;47726.66;5072357;28;20172;-89
2023/03/01 06:53:40;;;;;;;14.97;8.30;;;;;;;-141.97;100.00;47765.09;5069496;28;20180;-87
2023/03/01 06:56:06;;;;;;;12.27;7.70;;;;;;;-141.97;100.00;47817.00;5094030;28;20668;-87
2023/03/01 06:58:31;;;;;;;15.00;10.23;;;;;;;-141.97;100.00;47799.72;5093674;28;20247;-87
2023/03/01 07:00:57;;;;;;;14.60;8.90;;;;;;;-141.97;100.00;47872.75;5098034;28;20203;-88
2023/03/01 07:03:23;;;;;;;11.77;7.67;;;;;;;-141.97;100.00;47742.03;5113720;28;20191;-90
2023/03/01 07:05:51;;;;;;;10.97;6.60;;;;;;;-141.97;100.00;47711.28;5096075;28;20526;-88
2023/03/01 07:08:16;;;;;;;8.93;5.53;;;;;;;-141.97;100.00;47870.81;5056389;28;20203;-85
2023/03/01 07:10:42;;;;;;;9.47;5.80;;;;;;;-141.97;100.00;47684.38;5052220;28;20170;-85
2023/03/01 07:13:08;;;;;;;10.70;6.20;;;;;;;-141.97;100.00;47817.00;5056517;28;20557;-85
2023/03/01 07:15:33;;;;;;;8.83;6.03;;;;;;;-141.97;100.00;47788.19;5072938;28;20220;-85
2023/03/01 07:17:58;;;;;;;11.20;5.73;;;;;;;-141.97;100.00;47722.81;5079361;28;20217;-86
2023/03/01 07:20:25;;;;;;;13.77;5.90;;;;;;;-141.97;100.00;47905.44;5073277;28;20567;-86
2023/03/01 07:22:52;;;;;;;9.07;6.10;;;;;;;-141.97;100.00;47811.25;5059351;28;20176;-84
2023/03/01 07:25:17;;;;;;;11.33;6.67;;;;;;;-141.97;100.00;47747.81;5067735;28;20594;-86
2023/03/01 07:27:43;;;;;;;11.10;5.97;;;;;;;-141.97;100.00;47699.75;5072721;28;20172;-86
2023/03/01 07:30:09;;;;;;;11.20;6.10;;;;;;;-141.97;100.00;47803.56;5066387;28;20188;-85
2023/03/01 07:32:35;;;;;;;8.73;5.40;;;;;;;-141.97;100.00;47893.91;5055918;28;20238;-88
2023/03/01 07:35:00;;;;;;;11.13;6.57;;;;;;;-141.97;100.00;47759.34;5071730;28;20164;-85
2023/03/01 07:37:26;;;;;;;27.33;9.43;;;;;;;-141.97;100.00;47699.75;5090786;28;20178;-86
2023/03/01 07:39:51;;;;;;;36.13;17.53;;;;;;;-141.97;100.00;47793.94;5092116;28;20255;-87
2023/03/01 07:42:16;;;;;;;15.23;9.93;;;;;;;-141.97;100.00;47888.13;5099207;28;20253;-86
2023/03/01 07:44:42;;;;;;;14.03;9.03;;;;;;;-141.97;100.00;47861.22;5092363;28;20217;-86
2023/03/01 07:47:07;;;;;;;10.07;5.77;;;;;;;-141.97;100.00;47882.38;5074633;28;20168;-86
2023/03/01 07:49:32;;;;;;;8.37;5.50;;;;;;;-141.97;100.00;47792.03;5074443;28;20250;-86
2023/03/01 07:51:58;;;;;;;7.30;5.20;;;;;;;-141.97;100.00;47843.91;5092966;28;20157;-86
2023/03/01 07:54:24;;;;;;;6.67;4.80;;;;;;;-141.97;100.00;47792.03;5092708;28;20862;-85
2023/03/01 07:56:49;;;;;;;9.93;6.70;;;;;;;-141.97;100.00;47778.56;5092405;28;20179;-86
2023/03/01 07:59:15;;;;;;;18.03;9.40;;;;;;;-141.97;100.00;47834.31;5091799;28;20631;-86
2023/03/01 08:01:40;;;;;;;15.67;10.93;;;;;;;-141.97;100.00;47742.03;5092626;28;20180;-85
2023/03/01 08:04:07;;;;;;;18.90;11.10;;;;;;;-141.97;100.00;47736.28;5073697;28;20354;-86
2023/03/01 08:06:35;;;;;;;34.43;13.50;;;;;;;-141.97;100.00;47870.81;5073700;28;20269;-85
2023/03/01 08:09:00;;;;;;;20.47;9.33;;;;;;;-141.97;100.00;47847.75;5072716;28;20233;-86
2023/03/01 08:11:27;;;;;;;34.27;14.07;;;;;;;-141.97;100.00;47786.25;5080135;28;20161;-87
2023/03/01 08:13:53;;;;;;;22.40;10.67;;;;;;;-141.97;100.00;47807.41;5080764;28;20195;-89
2023/03/01 08:16:19;;;;;;;13.50;6.20;;;;;;;-141.97;100.00;47768.94;5059158;28;20225;-88
2023/03/01 08:18:44;;;;;;;15.50;8.87;;;;;;;-141.97;100.00;47817.00;5075285;28;20183;-87
2023/03/01 08:21:16;;;;;;;11.67;6.57;;;;;;;-141.97;100.00;47736.28;5078434;28;20176;-87
2023/03/01 08:23:42;;;;;;;10.87;6.23;;;;;;;-141.97;100.00;47757.41;5079756;28;20193;-85
2023/03/01 08:26:13;;;;;;;10.93;6.43;;;;;;;-141.97;100.00;47843.91;5064882;28;20196;-86
2023/03/01 08:28:40;;;;;;;6.30;4.17;;;;;;;-141.97;100.00;47765.09;5079438;28;20185;-87
2023/03/01 08:31:27;;;;;;;7.97;5.20;;;;;;;-141.97;100.00;47795.88;5079327;28;20251;-87
2023/03/01 08:33:55;;;;;;;9.00;5.10;;;;;;;-141.97;100.00;47826.63;5077068;28;20185;-87
2023/03/01 08:36:27;;;;;;;9.17;5.50;;;;;;;-141.97;100.00;47820.84;5061595;28;20157;-86
2023/03/01 08:38:53;;;;;;;9.90;6.43;;;;;;;-141.97;100.00;47788.19;5046917;28;20177;-87
2023/03/01 08:41:19;;;;;;;7.57;4.50;;;;;;;-141.97;100.00;47809.31;5071245;28;20199;-86
2023/03/01 08:43:45;;;;;;;8.03;5.20;;;;;;;-141.97;100.00;47755.50;5057110;28;20268;-87
2023/03/01 08:46:11;;;;;;;9.03;6.23;;;;;;;-141.97;100.00;47838.16;5059143;28;20188;-86
2023/03/01 08:48:36;;;;;;;7.13;5.00;;;;;;;-141.97;100.00;47824.69;5080073;28;20173;-87
2023/03/01 08:51:19;;;;;;;9.63;6.03;;;;;;;-141.97;100.00;47730.50;5062281;28;20643;-87
2023/03/01 08:53:52;;;;;;;10.67;7.13;;;;;;;-141.97;100.00;47842.00;5061066;28;20180;-87
2023/03/01 08:56:18;;;;;;;5.10;3.10;;;;;;;-141.97;100.00;47840.06;5005077;28;20647;-89
2023/03/01 08:58:45;;;;;;;8.17;5.07;;;;;;;-141.97;100.00;47736.28;5036669;28;20805;-87
2023/03/01 09:02:03;;;;;;;13.80;7.17;;;;;;;-141.97;100.00;47830.47;5055679;28;20213;-86
2023/03/01 09:04:28;;;;;;;4.60;2.77;;;;;;;-141.97;100.00;47795.88;4947975;29;20679;-85
2023/03/01 09:06:54;;;;;;;8.53;4.80;;;;;;;-141.97;100.00;47884.28;4943998;29;20283;-87
2023/03/01 09:09:20;;;;;;;11.83;7.17;;;;;;;-141.97;100.00;47726.66;4959233;29;20215;-86
2023/03/01 09:11:46;;;;;;;5.97;3.80;;;;;;;-141.97;100.00;47907.34;4942210;29;20219;-87
2023/03/01 09:14:13;;;;;;;7.80;6.10;;;;;;;-141.97;100.00;47718.97;4941459;29;20173;-86
2023/03/01 09:16:39;;;;;;;6.40;4.20;;;;;;;-141.97;100.00;47830.47;4955863;29;20327;-89
2023/03/01 09:19:05;;;;;;;3.83;3.17;;;;;;;-141.97;100.00;47803.56;4954908;29;20263;-86
2023/03/01 09:21:30;;;;;;;3.90;2.90;;;;;;;-141.97;100.00;47676.69;4938736;29;20201;-86
2023/03/01 09:23:57;;;;;;;8.80;5.87;;;;;;;-141.97;100.00;47811.25;4951795;29;20202;-86
2023/03/01 09:26:24;;;;;;;12.37;8.73;;;;;;;-141.97;100.00;47755.50;4951887;28;20194;-86
2023/03/01 09:28:53;;;;;;;6.07;4.57;;;;;;;-141.97;100.00;47790.09;4995574;28;20694;-86
2023/03/01 09:31:20;;;;;;;7.83;4.37;;;;;;;-141.97;100.00;47776.63;4996632;28;20183;-87
2023/03/01 09:33:48;;;;;;;15.07;6.90;;;;;;;-141.97;100.00;47818.94;4986846;28;20374;-87
2023/03/01 09:36:18;;;;;;;11.70;6.57;;;;;;;-141.97;100.00;47888.13;4980157;28;20601;-88
2023/03/01 09:38:45;;;;;;;6.00;4.00;;;;;;;-141.97;100.00;47765.09;4978931;28;20273;-87
2023/03/01 09:41:18;;;;;;;6.13;3.77;;;;;;;-141.97;100.00;47717.06;5028835;28;20196;-89
2023/03/01 09:44:00;;;;;;;10.30;5.77;;;;;;;-141.97;100.00;47830.47;5061777;28;20197;-87
2023/03/01 09:46:26;;;;;;;7.77;4.37;;;;;;;-141.97;100.00;47740.13;5055630;28;20235;-88
2023/03/01 09:48:57;;;;;;;4.40;3.40;;;;;;;-141.97;100.00;47709.38;5038123;28;20173;-87
2023/03/01 09:51:27;;;;;;;5.13;4.13;;;;;;;-141.97;100.00;47694.00;5061959;28;20181;-87
2023/03/01 09:53:54;;;;;;;5.50;3.13;;;;;;;-141.97;100.00;47930.41;5075799;28;20164;-88
2023/03/01 09:56:27;;;;;;;6.70;3.60;;;;;;;-141.97;100.00;47765.09;5076747;28;20660;-87
2023/03/01 09:59:05;;;;;;;8.13;4.60;;;;;;;-141.97;100.00;47897.75;5083660;28;20165;-84
2023/03/01 10:01:40;;;;;;;5.73;3.27;;;;;;;-141.97;100.00;47809.31;5086544;28;20230;-86
2023/03/01 10:04:09;;;;;;;10.57;5.70;;;;;;;-141.97;100.00;47826.63;5081170;28;20221;-87
2023/03/01 10:06:34;;;;;;;8.03;4.67;;;;;;;-141.97;100.00;47642.09;5078735;28;20176;-86
2023/03/01 10:09:05;;;;;;;9.07;6.53;;;;;;;-141.97;100.00;47865.06;5082526;28;20615;-86
2023/03/01 10:11:36;;;;;;;7.87;4.63;;;;;;;-141.97;100.00;47661.31;5074466;28;20226;-87
2023/03/01 10:14:20;;;;;;;36.97;23.13;;;;;;;-141.97;100.00;47845.84;5075310;28;20168;-84
2023/03/01 10:16:53;;;;;;;18.67;11.67;;;;;;;-141.97;100.00;47901.59;5075526;28;20231;-86
2023/03/01 10:19:34;;;;;;;10.80;8.03;;;;;;;-141.97;100.00;47842.00;5075325;28;20171;-87
2023/03/01 10:22:23;;;;;;;18.30;14.97;;;;;;;-141.97;100.00;47813.16;5076857;28;20244;-86
2023/03/01 10:24:51;;;;;;;10.47;5.63;;;;;;;-141.97;100.00;47818.94;5078793;28;20239;-86
2023/03/01 10:27:29;;;;;;;6.73;4.17;;;;;;;-141.97;100.00;47840.06;5056086;28;20167;-87
2023/03/01 10:30:39;;;;;;;7.33;3.97;;;;;;;-141.97;100.00;47834.31;5074781;28;20283;-88
2023/03/01 10:33:17;;;;;;;5.83;3.63;;;;;;;-141.97;100.00;47809.31;5014175;28;20187;-88
2023/03/01 10:35:42;;;;;;;4.40;3.10;;;;;;;-141.97;100.00;47826.63;5014596;28;20178;-90
2023/03/01 10:38:15;;;;;;;9.47;4.47;;;;;;;-141.97;100.00;47801.63;4995027;28;20272;-88
2023/03/01 10:41:08;;;;;;;10.30;5.13;;;;;;;-141.97;100.00;47857.38;4996025;28;20183;-89
2023/03/01 10:43:45;;;;;;;19.40;7.70;;;;;;;-141.97;100.00;47815.09;4995491;28;20285;-87
2023/03/01 10:46:25;;;;;;;9.17;4.57;;;;;;;-141.97;100.00;47815.09;4992932;28;20270;-87
2023/03/01 10:49:17;;;;;;;6.97;4.00;;;;;;;-141.97;100.00;47801.63;5002039;28;20185;-88
2023/03/01 10:51:46;;;;;;;6.23;4.23;;;;;;;-141.97;100.00;47803.56;4996369;28;20212;-87
2023/03/01 10:54:21;;;;;;;8.00;4.90;;;;;;;-141.97;100.00;47903.50;5000624;28;20198;-85
2023/03/01 10:56:53;;;;;;;11.47;5.47;;;;;;;-141.97;100.00;47801.63;5016359;28;20212;-86
2023/03/01 10:59:27;;;;;;;11.13;8.57;;;;;;;-141.97;100.00;47805.47;5014677;28;20745;-87
2023/03/01 11:02:30;;;;;;;7.43;4.63;;;;;;;-141.97;100.00;47824.69;4998210;28;20178;-87
2023/03/01 11:05:14;;;;;;;8.83;4.87;;;;;;;-141.97;100.00;47782.41;5053192;28;20657;-88
2023/03/01 11:07:47;;;;;;;11.20;5.57;;;;;;;-141.97;100.00;47811.25;5068769;28;20240;-87
2023/03/01 11:10:17;;;;;;;11.80;5.83;;;;;;;-141.97;100.00;47805.47;5041006;28;20229;-88
2023/03/01 11:12:43;;;;;;;11.07;5.20;;;;;;;-141.97;100.00;47788.19;5054072;28;20161;-87
2023/03/01 11:15:24;;;;;;;9.63;4.53;;;;;;;-141.97;100.00;47826.63;5054143;28;20637;-87
2023/03/01 11:17:50;;;;;;;7.60;4.33;;;;;;;-141.97;100.00;47824.69;5037665;28;20707;-86